createdAt,value
2023-05-19T00:00:15.434Z,102087.63
2023-05-19T00:02:44.333Z,102097.25
2023-05-19T00:05:15.160Z,102090.13
2023-05-19T00:07:45.498Z,102087.16
2023-05-19T00:10:14.178Z,102091.75
2023-05-19T00:12:42.808Z,102084.34
2023-05-19T00:15:13.561Z,102086.09
2023-05-19T00:17:42.500Z,102085.69
2023-05-19T00:20:12.627Z,102080.31
2023-05-19T00:22:40.478Z,102091.69
2023-05-19T00:25:08.926Z,102088.13
2023-05-19T00:27:36.708Z,102076.47
2023-05-19T00:30:04.834Z,102068.16
2023-05-19T00:32:34.027Z,102069.41
2023-05-19T00:35:01.810Z,102069.53
2023-05-19T00:37:29.604Z,102067.34
2023-05-19T00:39:58.126Z,102069.34
2023-05-19T00:42:25.859Z,102079.84
2023-05-19T00:44:54.204Z,102078.41
2023-05-19T00:47:21.949Z,102074.47
2023-05-19T00:49:51.122Z,102072.00
2023-05-19T00:52:19.029Z,102074.06
2023-05-19T00:54:47.335Z,102080.13
2023-05-19T00:57:15.921Z,102074.16
2023-05-19T00:59:43.756Z,102081.38
2023-05-19T01:02:11.643Z,102077.19
2023-05-19T01:04:41.844Z,102081.69
2023-05-19T01:07:12.511Z,102073.91
2023-05-19T01:09:40.765Z,102083.38
2023-05-19T01:12:09.338Z,102071.59
2023-05-19T01:14:37.239Z,102071.91
2023-05-19T01:17:10.900Z,102067.63
2023-05-19T01:19:55.076Z,102070.75
2023-05-19T01:23:07.685Z,102070.88
2023-05-19T01:26:02.268Z,102066.38
2023-05-19T01:28:59.780Z,102066.91
2023-05-19T01:31:29.423Z,102073.50
2023-05-19T01:33:58.293Z,102061.56
2023-05-19T01:36:27.555Z,102069.66
2023-05-19T01:38:58.428Z,102067.63
2023-05-19T01:41:29.557Z,102068.22
2023-05-19T01:43:58.869Z,102075.28
2023-05-19T01:46:28.138Z,102072.91
2023-05-19T01:48:56.174Z,102066.28
2023-05-19T01:51:23.974Z,102074.00
2023-05-19T01:53:51.811Z,102072.16
2023-05-19T01:56:27.861Z,102063.03
2023-05-19T01:59:05.703Z,102062.72
2023-05-19T02:01:44.673Z,102060.97
2023-05-19T02:04:21.501Z,102063.88
2023-05-19T02:06:59.800Z,102065.59
2023-05-19T02:09:38.848Z,102064.81
2023-05-19T02:12:12.309Z,102062.88
2023-05-19T02:14:41.171Z,102054.59
2023-05-19T02:17:13.974Z,102060.69
2023-05-19T02:19:42.031Z,102060.44
2023-05-19T02:22:09.929Z,102061.63
2023-05-19T02:24:37.756Z,102064.75
2023-05-19T02:27:06.061Z,102057.00
2023-05-19T02:29:33.803Z,102059.28
2023-05-19T02:32:02.570Z,102061.50
2023-05-19T02:34:31.706Z,102069.28
2023-05-19T02:36:59.409Z,102069.47
2023-05-19T02:39:29.142Z,102065.41
2023-05-19T02:41:56.893Z,102064.00
2023-05-19T02:44:24.625Z,102060.75
2023-05-19T02:46:52.489Z,102060.84
2023-05-19T02:49:20.264Z,102065.72
2023-05-19T02:51:49.352Z,102064.59
2023-05-19T02:54:17.279Z,102059.22
2023-05-19T02:56:45.041Z,102057.53
2023-05-19T02:59:12.750Z,102045.84
2023-05-19T03:01:40.709Z,102048.09
2023-05-19T03:04:08.524Z,102045.63
2023-05-19T03:06:36.384Z,102052.06
2023-05-19T03:09:05.885Z,102038.06
2023-05-19T03:11:33.612Z,102042.41
2023-05-19T03:14:01.389Z,102041.69
2023-05-19T03:16:29.617Z,102045.94
2023-05-19T03:18:57.471Z,102051.06
2023-05-19T03:21:25.369Z,102045.19
2023-05-19T03:23:53.163Z,102042.59
2023-05-19T03:26:23.108Z,102042.84
2023-05-19T03:28:50.947Z,102042.31
2023-05-19T03:31:18.743Z,102030.28
2023-05-19T03:33:46.474Z,102034.50
2023-05-19T03:36:14.455Z,102037.13
2023-05-19T03:38:42.245Z,102033.63
2023-05-19T03:41:10.000Z,102043.97
2023-05-19T03:43:39.188Z,102050.25
2023-05-19T03:46:07.093Z,102039.50
2023-05-19T03:48:34.879Z,102045.53
2023-05-19T03:51:04.394Z,102042.81
2023-05-19T03:53:32.212Z,102046.19
2023-05-19T03:56:00.635Z,102047.19
2023-05-19T03:58:29.982Z,102050.44
2023-05-19T04:00:59.085Z,102051.47
2023-05-19T04:03:27.095Z,102052.06
2023-05-19T04:05:55.001Z,102050.06
2023-05-19T04:08:22.766Z,102043.53
2023-05-19T04:10:50.533Z,102050.34
2023-05-19T04:13:18.292Z,102046.19
2023-05-19T04:15:46.109Z,102051.06
2023-05-19T04:18:15.423Z,102044.53
2023-05-19T04:20:43.243Z,102054.97
2023-05-19T04:23:10.982Z,102056.41
2023-05-19T04:25:40.918Z,102049.22
2023-05-19T04:28:08.785Z,102053.19
2023-05-19T04:30:37.054Z,102060.47
2023-05-19T04:33:05.357Z,102058.19
2023-05-19T04:35:34.480Z,102069.22
2023-05-19T04:38:03.820Z,102062.38
2023-05-19T04:40:32.177Z,102054.47
2023-05-19T04:43:02.158Z,102060.97
2023-05-19T04:45:30.135Z,102065.41
2023-05-19T04:47:58.584Z,102058.47
2023-05-19T04:50:28.542Z,102069.91
2023-05-19T04:52:59.284Z,102060.81
2023-05-19T04:55:27.153Z,102065.50
2023-05-19T04:57:54.946Z,102065.31
2023-05-19T05:00:22.993Z,102073.13
2023-05-19T05:02:50.922Z,102073.28
2023-05-19T05:05:18.892Z,102073.94
2023-05-19T05:07:46.665Z,102064.94
2023-05-19T05:10:15.793Z,102064.38
2023-05-19T05:12:44.057Z,102064.13
2023-05-19T05:15:13.104Z,102065.88
2023-05-19T05:17:41.392Z,102068.63
2023-05-19T05:20:11.747Z,102074.13
2023-05-19T05:22:39.945Z,102076.31
2023-05-19T05:25:09.188Z,102076.66
2023-05-19T05:27:38.442Z,102075.81
2023-05-19T05:30:07.244Z,102071.16
2023-05-19T05:32:35.197Z,102074.50
2023-05-19T05:35:03.276Z,102069.91
2023-05-19T05:37:31.672Z,102081.25
2023-05-19T05:39:59.434Z,102085.56
2023-05-19T05:42:29.520Z,102079.13
2023-05-19T05:44:58.897Z,102086.59
2023-05-19T05:47:27.211Z,102085.78
2023-05-19T05:49:55.577Z,102091.06
2023-05-19T05:52:27.685Z,102092.31
2023-05-19T05:54:55.995Z,102085.47
2023-05-19T05:57:24.217Z,102092.78
2023-05-19T05:59:51.973Z,102098.06
2023-05-19T06:02:21.881Z,102102.31
2023-05-19T06:04:49.820Z,102104.59
2023-05-19T06:07:17.545Z,102093.06
2023-05-19T06:09:45.283Z,102101.84
2023-05-19T06:12:13.232Z,102093.25
2023-05-19T06:14:41.042Z,102091.63
2023-05-19T06:17:08.768Z,102088.09
2023-05-19T06:19:37.885Z,102091.59
2023-05-19T06:22:05.860Z,102085.13
2023-05-19T06:24:33.599Z,102088.19
2023-05-19T06:27:01.365Z,102087.22
2023-05-19T06:29:29.099Z,102082.25
2023-05-19T06:31:57.155Z,102078.06
2023-05-19T06:34:24.935Z,102085.88
2023-05-19T06:36:54.032Z,102081.22
2023-05-19T06:39:21.870Z,102085.34
2023-05-19T06:41:49.568Z,102081.69
2023-05-19T06:44:18.333Z,102079.44
2023-05-19T06:46:47.623Z,102084.53
2023-05-19T06:49:15.413Z,102089.31
2023-05-19T06:51:43.185Z,102092.25
2023-05-19T06:54:15.923Z,102091.78
2023-05-19T06:56:43.726Z,102080.78
2023-05-19T06:59:11.454Z,102077.50
2023-05-19T07:01:39.404Z,102080.28
2023-05-19T07:04:07.418Z,102077.31
2023-05-19T07:06:35.340Z,102079.66
2023-05-19T07:09:05.186Z,102080.09
2023-05-19T07:11:34.641Z,102076.00
2023-05-19T07:14:03.028Z,102071.53
2023-05-19T07:16:30.824Z,102077.25
2023-05-19T07:18:58.654Z,102074.03
2023-05-19T07:21:26.516Z,102068.31
2023-05-19T07:23:54.275Z,102068.94
2023-05-19T07:26:22.663Z,102064.59
2023-05-19T07:28:51.909Z,102064.03
2023-05-19T07:31:19.762Z,102063.31
2023-05-19T07:33:47.517Z,102061.44
2023-05-19T07:36:15.695Z,102063.75
2023-05-19T07:38:44.159Z,102064.47
2023-05-19T07:41:12.018Z,102070.50
2023-05-19T07:43:39.823Z,102059.69
2023-05-19T07:46:08.981Z,102066.53
2023-05-19T07:48:36.755Z,102069.03
2023-05-19T07:51:05.035Z,102064.72
2023-05-19T07:53:32.802Z,102077.69
2023-05-19T07:56:00.519Z,102073.72
2023-05-19T07:58:28.406Z,102080.06
2023-05-19T08:00:58.322Z,102086.75
2023-05-19T08:03:27.708Z,102077.72
2023-05-19T08:05:55.757Z,102073.44
2023-05-19T08:08:23.508Z,102077.00
2023-05-19T08:10:51.301Z,102073.78
2023-05-19T08:13:19.058Z,102082.25
2023-05-19T08:15:47.128Z,102073.41
2023-05-19T08:18:14.917Z,102080.19
2023-05-19T08:20:44.059Z,102077.88
2023-05-19T08:23:12.298Z,102072.28
2023-05-19T08:25:40.662Z,102061.50
2023-05-19T08:28:08.410Z,102075.22
2023-05-19T08:30:36.127Z,102072.53
2023-05-19T08:33:03.869Z,102064.13
2023-05-19T08:35:31.844Z,102069.72
2023-05-19T08:38:01.007Z,102058.56
2023-05-19T08:40:31.733Z,102051.94
2023-05-19T08:42:59.702Z,102052.16
2023-05-19T08:45:28.182Z,102058.06
2023-05-19T08:47:56.009Z,102063.28
2023-05-19T08:50:30.643Z,102059.16
2023-05-19T08:53:18.144Z,102043.28
2023-05-19T08:55:59.980Z,102035.81
2023-05-19T08:58:28.863Z,102027.44
2023-05-19T09:00:58.926Z,102017.72
2023-05-19T09:03:29.094Z,102019.84
2023-05-19T09:05:57.163Z,102020.88
2023-05-19T09:08:26.304Z,102021.94
2023-05-19T09:10:54.135Z,102021.09
2023-05-19T09:13:21.963Z,102013.00
2023-05-19T09:15:51.428Z,102017.97
2023-05-19T09:18:19.254Z,102011.56
2023-05-19T09:20:47.862Z,102005.47
2023-05-19T09:23:17.008Z,102001.00
2023-05-19T09:25:50.070Z,102000.75
2023-05-19T09:28:25.054Z,102005.03
2023-05-19T09:31:00.739Z,102000.69
2023-05-19T09:33:29.359Z,101998.00
2023-05-19T09:35:58.025Z,101990.28
2023-05-19T09:38:26.791Z,101999.44
2023-05-19T09:40:58.086Z,101991.03
2023-05-19T09:43:28.906Z,101997.81
2023-05-19T09:45:59.917Z,101985.16
2023-05-19T09:48:27.724Z,101982.16
2023-05-19T09:50:57.215Z,101971.94
2023-05-19T09:53:26.243Z,101985.41
2023-05-19T09:55:58.822Z,101988.53
2023-05-19T09:58:27.115Z,101975.91
2023-05-19T10:00:55.460Z,101981.44
2023-05-19T10:03:24.382Z,101980.50
2023-05-19T10:05:53.586Z,101971.84
2023-05-19T10:08:21.814Z,101973.47
2023-05-19T10:10:49.605Z,101969.13
2023-05-19T10:13:19.329Z,101980.19
2023-05-19T10:15:58.113Z,101971.16
2023-05-19T10:18:27.947Z,101968.09
2023-05-19T10:20:57.817Z,101969.31
2023-05-19T10:23:26.086Z,101956.88
2023-05-19T10:25:57.781Z,101954.84
2023-05-19T10:28:35.766Z,101969.53
2023-05-19T10:31:07.823Z,101953.00
2023-05-19T10:33:43.844Z,101962.84
2023-05-19T10:36:25.589Z,101959.66
2023-05-19T10:38:59.962Z,101957.78
2023-05-19T10:41:35.152Z,101953.22
2023-05-19T10:44:14.833Z,101949.88
2023-05-19T10:46:43.148Z,101945.44
2023-05-19T10:49:11.227Z,101944.44
2023-05-19T10:51:38.959Z,101941.19
2023-05-19T10:54:11.549Z,101948.44
2023-05-19T10:56:42.476Z,101940.66
2023-05-19T10:59:32.162Z,101952.69
2023-05-19T11:02:04.934Z,101948.56
2023-05-19T11:04:51.097Z,101951.34
2023-05-19T11:07:20.933Z,101931.75
2023-05-19T11:09:52.103Z,101932.22
2023-05-19T11:12:22.170Z,101941.69
2023-05-19T11:14:53.758Z,101929.78
2023-05-19T11:17:23.768Z,101932.00
2023-05-19T11:19:56.332Z,101932.06
2023-05-19T11:22:25.885Z,101925.25
2023-05-19T11:24:56.066Z,101924.81
2023-05-19T11:27:28.397Z,101925.06
2023-05-19T11:30:00.262Z,101910.25
2023-05-19T11:32:29.771Z,101910.75
2023-05-19T11:34:58.244Z,101906.28
2023-05-19T11:37:26.394Z,101919.63
2023-05-19T11:39:54.410Z,101917.16
2023-05-19T11:42:22.891Z,101911.38
2023-05-19T11:44:50.788Z,101901.63
2023-05-19T11:47:19.936Z,101911.78
2023-05-19T11:49:49.575Z,101903.78
2023-05-19T11:52:17.504Z,101898.09
2023-05-19T11:54:49.888Z,101896.28
2023-05-19T11:57:18.132Z,101897.09
2023-05-19T11:59:48.217Z,101887.44
2023-05-19T12:02:19.931Z,101891.72
2023-05-19T12:04:49.182Z,101888.91
2023-05-19T12:07:18.716Z,101872.41
2023-05-19T12:09:47.203Z,101869.66
2023-05-19T12:12:15.866Z,101875.81
2023-05-19T12:14:43.772Z,101870.28
2023-05-19T12:17:13.174Z,101873.19
2023-05-19T12:19:44.450Z,101866.16
2023-05-19T12:22:13.025Z,101873.28
2023-05-19T12:24:41.920Z,101864.84
2023-05-19T12:27:13.641Z,101883.28
2023-05-19T12:29:41.759Z,101883.28
2023-05-19T12:32:10.399Z,101869.44
2023-05-19T12:34:38.784Z,101866.72
2023-05-19T12:37:08.091Z,101870.78
2023-05-19T12:39:35.995Z,101867.50
2023-05-19T12:42:04.698Z,101870.38
2023-05-19T12:44:32.453Z,101868.84
2023-05-19T12:47:01.764Z,101866.38
2023-05-19T12:49:29.527Z,101864.50
2023-05-19T12:51:57.353Z,101865.25
2023-05-19T12:54:26.506Z,101860.66
2023-05-19T12:56:54.274Z,101860.50
2023-05-19T12:59:30.946Z,101854.38
2023-05-19T13:02:05.816Z,101862.59
2023-05-19T13:04:33.626Z,101854.66
2023-05-19T13:07:01.735Z,101857.38
2023-05-19T13:09:34.960Z,101851.09
2023-05-19T13:12:02.815Z,101856.28
2023-05-19T13:14:30.606Z,101840.44
2023-05-19T13:16:58.399Z,101850.03
2023-05-19T13:19:26.357Z,101836.25
2023-05-19T13:21:54.400Z,101833.13
2023-05-19T13:24:22.174Z,101824.34
2023-05-19T13:26:52.280Z,101820.53
2023-05-19T13:29:21.035Z,101827.25
2023-05-19T13:31:48.866Z,101818.41
2023-05-19T13:34:17.104Z,101819.03
2023-05-19T13:36:48.059Z,101806.78
2023-05-19T13:39:15.965Z,101805.66
2023-05-19T13:41:43.726Z,101798.28
2023-05-19T13:44:12.855Z,101794.41
2023-05-19T13:46:45.291Z,101799.38
2023-05-19T13:49:14.298Z,101803.38
2023-05-19T13:51:44.048Z,101802.84
2023-05-19T13:54:12.053Z,101801.81
2023-05-19T13:56:40.111Z,101801.19
2023-05-19T13:59:08.035Z,101794.75
2023-05-19T14:01:37.291Z,101799.59
2023-05-19T14:04:05.601Z,101797.28
2023-05-19T14:06:33.389Z,101794.09
2023-05-19T14:09:01.251Z,101797.00
2023-05-19T14:11:29.044Z,101795.38
2023-05-19T14:13:57.060Z,101795.97
2023-05-19T14:16:26.369Z,101798.22
2023-05-19T14:18:55.584Z,101797.19
2023-05-19T14:21:23.635Z,101791.66
2023-05-19T14:23:51.479Z,101791.66
2023-05-19T14:26:19.686Z,101789.41
2023-05-19T14:28:47.435Z,101781.69
2023-05-19T14:31:15.510Z,101782.03
2023-05-19T14:33:43.414Z,101773.66
2023-05-19T14:36:12.544Z,101777.72
2023-05-19T14:38:40.320Z,101783.81
2023-05-19T14:41:08.363Z,101787.50
2023-05-19T14:43:36.177Z,101764.47
2023-05-19T14:46:03.944Z,101775.66
2023-05-19T14:48:32.001Z,101758.94
2023-05-19T14:50:59.749Z,101765.75
2023-05-19T14:53:28.965Z,101773.81
2023-05-19T14:55:56.679Z,101771.88
2023-05-19T14:58:29.049Z,101764.00
2023-05-19T15:00:59.011Z,101762.75
2023-05-19T15:03:26.849Z,101760.50
2023-05-19T15:05:54.727Z,101766.56
2023-05-19T15:08:22.486Z,101760.53
2023-05-19T15:10:51.802Z,101752.38
2023-05-19T15:13:21.424Z,101754.88
2023-05-19T15:15:49.180Z,101762.63
2023-05-19T15:18:18.587Z,101750.75
2023-05-19T15:20:46.739Z,101745.88
2023-05-19T15:23:14.555Z,101750.97
2023-05-19T15:25:42.382Z,101752.34
2023-05-19T15:28:12.505Z,101752.50
2023-05-19T15:30:40.308Z,101750.16
2023-05-19T15:33:08.111Z,101740.41
2023-05-19T15:35:35.894Z,101743.84
2023-05-19T15:38:06.257Z,101747.44
2023-05-19T15:40:34.643Z,101750.53
2023-05-19T15:43:02.660Z,101745.47
2023-05-19T15:45:31.971Z,101742.03
2023-05-19T15:47:59.738Z,101738.13
2023-05-19T15:50:27.480Z,101743.88
2023-05-19T15:52:55.242Z,101731.00
2023-05-19T15:55:23.070Z,101748.31
2023-05-19T15:57:50.825Z,101735.06
2023-05-19T16:00:18.692Z,101733.50
2023-05-19T16:02:48.004Z,101737.91
2023-05-19T16:05:16.722Z,101732.06
2023-05-19T16:07:45.004Z,101726.91
2023-05-19T16:10:12.867Z,101729.31
2023-05-19T16:12:40.600Z,101725.91
2023-05-19T16:15:09.106Z,101725.50
2023-05-19T16:17:36.877Z,101729.78
2023-05-19T16:20:07.372Z,101723.75
2023-05-19T16:22:35.144Z,101727.88
2023-05-19T16:25:02.863Z,101727.88
2023-05-19T16:27:30.624Z,101728.63
2023-05-19T16:29:58.465Z,101731.50
2023-05-19T16:32:26.387Z,101737.22
2023-05-19T16:34:54.165Z,101727.66
2023-05-19T16:37:23.304Z,101722.94
2023-05-19T16:39:51.054Z,101725.00
2023-05-19T16:42:18.777Z,101729.81
2023-05-19T16:44:46.686Z,101724.00
2023-05-19T16:47:14.443Z,101719.44
2023-05-19T16:49:42.195Z,101726.72
2023-05-19T16:52:09.929Z,101721.38
2023-05-19T16:54:39.083Z,101725.88
2023-05-19T16:57:06.953Z,101718.41
2023-05-19T16:59:34.748Z,101718.59
2023-05-19T17:02:02.544Z,101725.91
2023-05-19T17:04:30.958Z,101725.38
2023-05-19T17:06:58.852Z,101729.41
2023-05-19T17:09:26.769Z,101722.53
2023-05-19T17:11:56.359Z,101724.00
2023-05-19T17:14:24.144Z,101718.22
2023-05-19T17:16:52.894Z,101719.16
2023-05-19T17:19:20.779Z,101720.97
2023-05-19T17:21:48.532Z,101722.56
2023-05-19T17:24:16.365Z,101716.66
2023-05-19T17:26:44.131Z,101721.41
2023-05-19T17:29:13.283Z,101723.34
2023-05-19T17:31:41.446Z,101718.31
2023-05-19T17:34:09.252Z,101719.91
2023-05-19T17:36:36.979Z,101716.66
2023-05-19T17:39:04.828Z,101724.03
2023-05-19T17:41:32.910Z,101711.00
2023-05-19T17:44:00.655Z,101717.13
2023-05-19T17:46:34.495Z,101716.56
2023-05-19T17:49:02.312Z,101714.06
2023-05-19T17:51:30.636Z,101725.09
2023-05-19T17:53:58.992Z,101728.56
2023-05-19T17:56:27.930Z,101735.09
2023-05-19T17:58:56.216Z,101739.47
2023-05-19T18:01:25.814Z,101726.59
2023-05-19T18:03:56.162Z,101725.47
2023-05-19T18:06:26.255Z,101724.66
2023-05-19T18:08:55.419Z,101716.97
2023-05-19T18:11:23.808Z,101721.63
2023-05-19T18:13:51.773Z,101720.25
2023-05-19T18:16:19.554Z,101732.31
2023-05-19T18:18:50.386Z,101728.66
2023-05-19T18:21:19.988Z,101737.44
2023-05-19T18:23:48.330Z,101739.41
2023-05-19T18:26:16.214Z,101738.50
2023-05-19T18:28:44.331Z,101737.69
2023-05-19T18:31:17.467Z,101742.50
2023-05-19T18:33:45.309Z,101732.81
2023-05-19T18:36:13.531Z,101731.91
2023-05-19T18:38:43.469Z,101736.94
2023-05-19T18:41:11.259Z,101737.13
2023-05-19T18:43:39.087Z,101740.09
2023-05-19T18:46:06.918Z,101735.22
2023-05-19T18:48:34.678Z,101737.97
2023-05-19T18:51:03.730Z,101744.38
2023-05-19T18:53:33.648Z,101751.81
2023-05-19T18:56:03.793Z,101756.91
2023-05-19T18:58:31.565Z,101756.63
2023-05-19T19:00:59.845Z,101752.00
2023-05-19T19:03:28.581Z,101748.97
2023-05-19T19:05:56.747Z,101748.72
2023-05-19T19:08:24.764Z,101746.81
2023-05-19T19:10:54.680Z,101746.81
2023-05-19T19:13:23.800Z,101753.59
2023-05-19T19:15:51.562Z,101752.28
2023-05-19T19:18:19.323Z,101753.00
2023-05-19T19:20:47.096Z,101756.38
2023-05-19T19:23:14.876Z,101757.00
2023-05-19T19:25:42.610Z,101753.75
2023-05-19T19:28:10.538Z,101755.84
2023-05-19T19:30:39.727Z,101754.31
2023-05-19T19:33:07.555Z,101748.53
2023-05-19T19:35:35.334Z,101751.06
2023-05-19T19:38:03.092Z,101759.22
2023-05-19T19:40:30.850Z,101750.09
2023-05-19T19:42:58.675Z,101758.91
2023-05-19T19:45:26.496Z,101759.63
2023-05-19T19:47:55.714Z,101766.50
2023-05-19T19:50:23.598Z,101770.16
2023-05-19T19:52:51.612Z,101764.78
2023-05-19T19:55:19.502Z,101769.59
2023-05-19T19:57:49.347Z,101768.81
2023-05-19T20:00:18.165Z,101772.56
2023-05-19T20:05:21.093Z,101773.03
2023-05-19T20:07:48.867Z,101773.22
2023-05-19T20:10:16.610Z,101781.72
2023-05-19T20:12:44.529Z,101780.69
2023-05-19T20:15:12.705Z,101781.81
2023-05-19T20:17:40.482Z,101798.81
2023-05-19T20:20:10.824Z,101801.19
2023-05-19T20:22:40.308Z,101806.38
2023-05-19T20:25:08.881Z,101808.28
2023-05-19T20:27:36.613Z,101806.56
2023-05-19T20:30:04.456Z,101807.22
2023-05-19T20:32:32.277Z,101815.59
2023-05-19T20:34:59.999Z,101809.69
2023-05-19T20:37:27.696Z,101817.34
2023-05-19T20:39:56.789Z,101823.34
2023-05-19T20:42:24.676Z,101819.56
2023-05-19T20:44:52.742Z,101827.06
2023-05-19T20:47:21.062Z,101835.97
2023-05-19T20:49:49.168Z,101843.69
2023-05-19T20:52:17.244Z,101846.91
2023-05-19T20:54:45.373Z,101838.81
2023-05-19T20:57:14.849Z,101846.72
2023-05-19T20:59:42.656Z,101848.59
2023-05-19T21:02:11.686Z,101850.16
2023-05-19T21:04:39.825Z,101849.16
2023-05-19T21:07:07.581Z,101839.53
2023-05-19T21:09:35.526Z,101842.19
2023-05-19T21:12:03.347Z,101835.84
2023-05-19T21:14:32.461Z,101841.75
2023-05-19T21:17:00.268Z,101835.22
2023-05-19T21:19:28.510Z,101842.31
2023-05-19T21:21:56.990Z,101833.34
2023-05-19T21:24:24.757Z,101835.66
2023-05-19T21:26:52.656Z,101842.34
2023-05-19T21:29:20.473Z,101846.53
2023-05-19T21:31:50.560Z,101838.25
2023-05-19T21:34:18.310Z,101831.72
2023-05-19T21:36:47.162Z,101836.91
2023-05-19T21:39:15.925Z,101840.84
2023-05-19T21:41:43.696Z,101848.16
2023-05-19T21:44:11.514Z,101841.78
2023-05-19T21:46:39.670Z,101842.63
2023-05-19T21:49:08.783Z,101835.16
2023-05-19T21:51:36.720Z,101835.53
2023-05-19T21:54:04.510Z,101836.63
2023-05-19T21:56:32.242Z,101843.91
2023-05-19T21:59:00.039Z,101835.91
2023-05-19T22:01:27.904Z,101830.28
2023-05-19T22:03:55.867Z,101838.34
2023-05-19T22:06:25.388Z,101839.25
2023-05-19T22:08:53.175Z,101831.81
2023-05-19T22:11:21.416Z,101824.28
2023-05-19T22:13:50.134Z,101818.50
2023-05-19T22:16:17.948Z,101822.53
2023-05-19T22:18:45.698Z,101810.97
2023-05-19T22:21:13.434Z,101820.31
2023-05-19T22:23:42.571Z,101820.13
2023-05-19T22:26:10.331Z,101811.53
2023-05-19T22:28:38.082Z,101825.16
2023-05-19T22:31:06.356Z,101828.13
2023-05-19T22:33:34.112Z,101828.69
2023-05-19T22:36:01.853Z,101820.66
2023-05-19T22:38:29.621Z,101824.84
2023-05-19T22:40:58.735Z,101826.81
2023-05-19T22:43:26.497Z,101829.09
2023-05-19T22:45:54.348Z,101821.13
2023-05-19T22:48:22.131Z,101828.09
2023-05-19T22:50:49.900Z,101819.72
2023-05-19T22:53:17.700Z,101824.75
2023-05-19T22:55:45.597Z,101827.50
2023-05-19T22:58:14.889Z,101828.25
2023-05-19T23:00:42.726Z,101824.34
2023-05-19T23:03:11.320Z,101821.06
2023-05-19T23:05:39.133Z,101821.97
2023-05-19T23:08:07.154Z,101822.78
2023-05-19T23:10:34.942Z,101815.97
2023-05-19T23:13:02.671Z,101809.50
2023-05-19T23:15:31.889Z,101811.91
2023-05-19T23:18:01.209Z,101815.44
2023-05-19T23:20:29.142Z,101816.34
2023-05-19T23:22:56.927Z,101809.59
2023-05-19T23:25:24.680Z,101804.31
2023-05-19T23:27:52.564Z,101807.47
2023-05-19T23:30:20.490Z,101797.28
2023-05-19T23:32:49.666Z,101798.66
2023-05-19T23:35:20.104Z,101796.00
2023-05-19T23:37:47.959Z,101802.25
2023-05-19T23:40:16.292Z,101808.03
2023-05-19T23:42:44.850Z,101801.78
2023-05-19T23:45:12.843Z,101803.84
2023-05-19T23:47:40.595Z,101796.34
2023-05-19T23:50:11.336Z,101802.03
2023-05-19T23:52:39.088Z,101795.75
2023-05-19T23:55:08.008Z,101794.13
2023-05-19T23:57:35.755Z,101793.31
